Flight Track Log - Related Links

Times and Time Zones

All times are in EDT time to prevent confusion due to time zone crossing. See the N232CA flight status page for this flight to view local times or setup timezone preferences in your user account.

Time Position Orientation Groundspeed Altitude Reporting Facility
EDT Latitude Longitude Course Direction KTS MPH feet Rate Location/Type
Sun 05:59:00 PM 37.5365 -79.1176 17° North  Level FlightAware
Sun 06:00:00 PM 37.5732 -79.1038 17° North  Level FlightAware
Sun 06:01:00 PM 37.6098 -79.0901 17° North  Level FlightAware
Sun 06:02:00 PM 37.6465 -79.0763 17° North  Level FlightAware
Sun 06:03:00 PM 37.6831 -79.0626 17° North  Level FlightAware
Sun 06:04:00 PM 37.7197 -79.0488 17° North  Level FlightAware
Sun 06:04:52 PM 37.6333 -79.2167 17° North 145 167 6,900  Level Potomac TRACON
Sun 06:05:00 PM 37.7563 -79.0348 17° North  Level FlightAware
Sun 06:05:52 PM 37.6667 -79.2167 360° North 136 157 6,900  Level Potomac TRACON
Sun 06:06:00 PM 37.7929 -79.0208 17° North  Level FlightAware
Sun 06:06:53 PM 37.7000 -79.2000 22° Northeast 137 158 7,000  Level Potomac TRACON
Sun 06:07:00 PM 37.8295 -79.0068 17° North  Level FlightAware
Sun 06:07:53 PM 37.7500 -79.2000 360° North 141 162 7,000  Level Potomac TRACON
Sun 06:08:00 PM 37.8661 -78.9927 17° North  Level FlightAware
Sun 06:08:53 PM 37.7833 -79.1833 22° Northeast 143 165 7,000  Level Potomac TRACON
Sun 06:09:00 PM 37.9027 -78.9787 17° North  Level FlightAware
Sun 06:09:54 PM 37.8167 -79.1667 22° Northeast 137 158 7,000  Level Potomac TRACON
Sun 06:10:00 PM 37.9393 -78.9646 17° North  Level FlightAware
Sun 06:10:54 PM 37.8500 -79.1667 360° North 136 157 7,000  Level Potomac TRACON
Sun 06:11:54 PM 37.9000 -79.1500 15° North 141 162 6,900  Descending Potomac TRACON
Sun 06:12:54 PM 37.9333 -79.1333 22° Northeast 145 167 7,000 50 Climbing Potomac TRACON
Sun 06:13:54 PM 37.9667 -79.1167 22° Northeast 142 163 7,000  Level Potomac TRACON
Sun 06:14:55 PM 38.0000 -79.1000 22° Northeast 144 166 7,000  Level Potomac TRACON
Sun 06:15:55 PM 38.0333 -79.0833 21° North 142 163 7,000  Level Potomac TRACON
Sun 06:16:55 PM 38.0833 -79.0833 360° North 145 167 7,000  Level Potomac TRACON
Sun 06:17:55 PM 38.1167 -79.0667 21° North 144 166 7,000  Level Potomac TRACON
Sun 06:18:55 PM 38.1667 -79.0500 15° North 140 161 7,000  Level Potomac TRACON
Sun 06:19:50 PM 38.1883 -79.0444 11° North 146 168 7,000  Level Washington Center
Sun 06:20:51 PM 38.2306 -79.0281 17° North 146 168 7,000  Level Washington Center
Sun 06:21:51 PM 38.2683 -79.0139 16° North 146 168 7,000  Level Washington Center
Sun 06:22:52 PM 38.3064 -78.9997 16° North 141 162 7,000  Level Washington Center
Sun 06:23:49 PM 38.3400 -78.9856 18° North 141 162 7,000  Level Washington Center
Sun 06:24:50 PM 38.3758 -78.9711 18° North 141 162 7,000  Level Washington Center
Sun 06:25:50 PM 38.4117 -78.9569 17° North 136 157 7,000  Level Washington Center
Sun 06:26:52 PM 38.4497 -78.9400 19° North 136 157 7,000  Level Washington Center
Sun 06:27:49 PM 38.4900 -78.9233 18° North 136 157 7,000  Level Washington Center
Sun 06:28:51 PM 38.5278 -78.9092 16° North 136 157 7,000 49 Level Washington Center
Sun 06:29:52 PM 38.5636 -78.8922 20° North 131 151 7,100  Climbing Washington Center
Sun 06:30:49 PM 38.5997 -78.8750 20° North 131 151 7,000 -51 Descending Washington Center
Sun 06:31:50 PM 38.6375 -78.8608 16° North 131 151 7,000 49 Level Washington Center
Sun 06:32:51 PM 38.6733 -78.8439 20° North 131 151 7,100  Climbing Washington Center
Sun 06:33:52 PM 38.7094 -78.8267 20° North 131 151 7,000 -50 Descending Washington Center
Sun 06:34:50 PM 38.7472 -78.8125 16° North 131 151 7,000 50 Level Washington Center
Sun 06:35:51 PM 38.7831 -78.7981 17° North 131 151 7,100  Climbing Washington Center
Sun 06:36:52 PM 38.8211 -78.7811 19° North 131 151 7,000  Descending Washington Center
Sun 06:37:49 PM 38.8592 -78.7614 22° Northeast 131 151 7,100  Climbing Washington Center
Sun 06:38:50 PM 38.8969 -78.7469 17° North 131 151 7,000 -50 Descending Washington Center
Sun 06:39:50 PM 38.9328 -78.7325 17° North 131 151 7,000  Level Washington Center
Sun 06:40:49 PM 38.9667 -78.7181 18° North 131 151 7,000  Level Washington Center
Sun 06:41:50 PM 39.0044 -78.7008 20° North 131 151 7,000  Level Washington Center
Sun 06:42:50 PM 39.0425 -78.6839 19° North 131 151 7,000  Level Washington Center
Sun 06:43:51 PM 39.0806 -78.6639 22° Northeast 131 151 7,000  Level Washington Center
Sun 06:44:50 PM 39.1186 -78.6469 19° North 131 151 7,000  Level Washington Center
Sun 06:45:50 PM 39.1564 -78.6297 19° North 131 151 7,000  Level Washington Center
Sun 06:46:51 PM 39.1944 -78.6100 22° Northeast 131 151 7,000  Level Washington Center
Sun 06:47:51 PM 39.2325 -78.5953 17° North 131 151 7,000  Level Washington Center
Sun 06:48:51 PM 39.2703 -78.5756 22° Northeast 131 151 7,000 51 Level Washington Center
Sun 06:49:49 PM 39.3064 -78.5556 23° Northeast 131 151 7,100  Climbing Washington Center
Sun 06:50:50 PM 39.3444 -78.5356 22° Northeast 131 151 7,000 -49 Descending Washington Center
Sun 06:51:51 PM 39.3822 -78.5156 22° Northeast 131 151 7,000 50 Level Washington Center
Sun 06:52:49 PM 39.4181 -78.4983 20° North 131 151 7,100  Climbing Washington Center
Sun 06:53:49 PM 39.4542 -78.4783 23° Northeast 131 151 7,000 -49 Descending Washington Center
Sun 06:54:51 PM 39.4919 -78.4608 20° North 131 151 7,000 30 Level Washington Center
Sun 06:57:11 PM 39.5858 -78.4175 20° North 144 166 7,100  Climbing Cleveland Center
Sun 06:58:12 PM 39.6231 -78.4000 20° North 145 167 7,000  Descending Cleveland Center
Sun 06:59:13 PM 39.6603 -78.3828 20° North 142 163 7,100 47 Climbing Cleveland Center
Sun 07:00:19 PM 39.6994 -78.3653 19° North 138 159 7,100 50 Level Cleveland Center
Sun 07:01:14 PM 39.7325 -78.3506 19° North 137 158 7,200  Climbing Cleveland Center
Sun 07:02:15 PM 39.7678 -78.3414 11° North 139 160 7,100 -47 Descending Cleveland Center
Sun 07:03:21 PM 39.8114 -78.3264 15° North 136 157 7,100 47 Level Cleveland Center
Sun 07:04:22 PM 39.8464 -78.3117 18° North 136 157 7,200 49 Climbing Cleveland Center
Sun 07:05:23 PM 39.8817 -78.2969 18° North 141 162 7,200 -52 Level Cleveland Center
Sun 07:06:17 PM 39.9164 -78.2714 29° Northeast 151 174 7,100 -104 Descending Cleveland Center
Sun 07:07:18 PM 39.9558 -78.2539 19° North 140 161 7,000  Descending Cleveland Center
Sun 07:08:18 PM 39.9931 -78.2389 17° North 138 159 7,100 50 Climbing Cleveland Center
Sun 07:09:19 PM 40.0281 -78.2242 18° North 141 162 7,100  Level Cleveland Center
Sun 07:10:20 PM 40.0631 -78.2042 24° Northeast 143 165 7,100  Level Cleveland Center

Login

Don't have an account? Register now (free) for customized features, flight alerts, and more!